Time;durP1;ratioP1;P1;durP2;ratioP2;P2;SDS_P1;SDS_P2;PMS_P1;PMS_P2;Temp;Humidity;BMP_temperature;BMP_pressure;BME280_temperature;BME280_humidity;BME280_pressure;Samples;Min_cycle;Max_cycle;Signal;HPM_P1;HPM_P2
2022/03/05 00:01:08;;;;;;;18.80;8.10;;;-0.90;99.90;;;;;;4854679;29;20057;-80
2022/03/05 00:03:34;;;;;;;17.20;7.63;;;-1.00;99.90;;;;;;4855117;29;20049;-80
2022/03/05 00:06:00;;;;;;;16.35;7.63;;;-1.00;99.90;;;;;;4853245;29;20124;-80
2022/03/05 00:08:25;;;;;;;21.50;7.72;;;-1.00;99.90;;;;;;4853897;29;20045;-80
2022/03/05 00:10:51;;;;;;;14.18;8.10;;;-1.00;99.90;;;;;;4853622;29;20037;-80
2022/03/05 00:13:17;;;;;;;18.67;9.60;;;-1.00;99.90;;;;;;4853300;29;20098;-80
2022/03/05 00:15:43;;;;;;;20.42;7.50;;;-1.00;99.90;;;;;;4853553;29;20050;-80
2022/03/05 00:18:08;;;;;;;18.30;7.75;;;-1.00;99.90;;;;;;4869990;29;20057;-80
2022/03/05 00:20:34;;;;;;;18.30;7.93;;;-1.00;99.90;;;;;;4853862;29;20114;-80
2022/03/05 00:22:59;;;;;;;20.10;7.93;;;-1.00;99.90;;;;;;4853682;29;20109;-80
2022/03/05 00:25:25;;;;;;;19.02;7.32;;;-1.00;99.90;;;;;;4853778;29;20102;-80
2022/03/05 00:27:51;;;;;;;17.50;7.53;;;-1.00;99.90;;;;;;4853512;29;20057;-80
2022/03/05 00:30:18;;;;;;;18.30;7.35;;;-0.90;99.90;;;;;;4869674;29;20053;-81
2022/03/05 00:32:45;;;;;;;14.93;6.70;;;-1.00;99.90;;;;;;4847079;29;20041;-82
2022/03/05 00:35:11;;;;;;;19.92;7.93;;;-1.00;99.90;;;;;;4863607;29;20056;-82
2022/03/05 00:37:37;;;;;;;16.02;6.93;;;-1.00;99.90;;;;;;4847741;29;20045;-82
2022/03/05 00:40:04;;;;;;;16.08;7.53;;;-1.00;99.90;;;;;;4878029;29;20069;-82
2022/03/05 00:42:29;;;;;;;19.75;8.07;;;-0.90;99.90;;;;;;4861998;29;20049;-82
2022/03/05 00:44:55;;;;;;;20.08;7.15;;;-0.90;99.90;;;;;;4862867;29;20037;-82
2022/03/05 00:47:21;;;;;;;20.00;8.32;;;-1.00;99.90;;;;;;4862732;29;20081;-82
2022/03/05 00:49:46;;;;;;;21.23;8.60;;;-1.00;99.90;;;;;;4862282;29;20041;-82
2022/03/05 00:52:12;;;;;;;14.88;7.07;;;-0.90;99.90;;;;;;4861189;29;20049;-83
2022/03/05 00:54:37;;;;;;;19.05;7.53;;;-0.90;99.90;;;;;;4861359;29;20060;-82
2022/03/05 00:57:03;;;;;;;17.13;8.15;;;-1.00;99.90;;;;;;4861383;29;20065;-82
2022/03/05 00:59:29;;;;;;;19.05;7.53;;;-1.00;99.90;;;;;;4859778;29;20052;-82
2022/03/05 01:01:54;;;;;;;21.27;7.38;;;-0.90;99.90;;;;;;4859493;29;20140;-82
2022/03/05 01:04:20;;;;;;;15.23;6.80;;;-0.90;99.90;;;;;;4860303;29;20042;-82
2022/03/05 01:06:45;;;;;;;20.75;7.40;;;-0.90;99.90;;;;;;4860795;29;20124;-82
2022/03/05 01:09:11;;;;;;;15.70;6.35;;;-0.90;99.90;;;;;;4860485;29;20049;-82
2022/03/05 01:11:37;;;;;;;21.20;8.48;;;-0.90;99.90;;;;;;4859843;29;20056;-82
2022/03/05 01:14:03;;;;;;;16.33;5.65;;;-0.90;99.90;;;;;;4860991;29;20072;-83
2022/03/05 01:16:28;;;;;;;13.40;6.47;;;-0.80;99.90;;;;;;4860422;29;20056;-82
2022/03/05 01:18:54;;;;;;;15.52;7.22;;;-0.80;99.90;;;;;;4859476;29;20113;-82
2022/03/05 01:21:19;;;;;;;18.17;6.70;;;-0.80;99.90;;;;;;4860290;29;20055;-82
2022/03/05 01:23:45;;;;;;;18.05;7.45;;;-0.80;99.90;;;;;;4860774;29;20062;-82
2022/03/05 01:26:10;;;;;;;17.88;7.97;;;-0.80;99.90;;;;;;4859835;29;20109;-82
2022/03/05 01:28:36;;;;;;;18.10;7.05;;;-0.90;99.90;;;;;;4860440;29;20045;-82
2022/03/05 01:31:02;;;;;;;18.27;7.05;;;-0.90;99.90;;;;;;4843988;29;20049;-83
2022/03/05 01:33:28;;;;;;;15.77;7.38;;;-0.90;99.90;;;;;;4874372;29;20055;-82
2022/03/05 01:35:53;;;;;;;17.30;7.55;;;-1.00;99.90;;;;;;4858401;29;20451;-82
2022/03/05 01:38:19;;;;;;;13.70;6.97;;;-1.00;99.90;;;;;;4843606;29;20042;-82
2022/03/05 01:40:45;;;;;;;19.15;7.05;;;-1.00;99.90;;;;;;4857790;29;20049;-83
2022/03/05 01:43:11;;;;;;;21.45;8.00;;;-1.00;99.90;;;;;;4857202;29;20049;-82
2022/03/05 01:45:37;;;;;;;14.80;6.55;;;-1.00;99.90;;;;;;4857310;29;20090;-83
2022/03/05 01:48:04;;;;;;;18.80;7.47;;;-1.00;99.90;;;;;;4858414;29;20485;-82
2022/03/05 01:50:30;;;;;;;18.85;6.88;;;-1.00;99.90;;;;;;4857572;29;20037;-82
2022/03/05 01:52:56;;;;;;;15.25;7.65;;;-1.00;99.90;;;;;;4859280;29;20049;-81
2022/03/05 01:55:23;;;;;;;15.60;6.75;;;-1.00;99.90;;;;;;4842802;29;20053;-82
2022/03/05 01:57:49;;;;;;;14.93;7.32;;;-1.00;99.90;;;;;;4859236;29;20045;-82
2022/03/05 02:00:15;;;;;;;15.57;6.68;;;-1.00;99.90;;;;;;4859467;29;20048;-82
2022/03/05 02:02:43;;;;;;;20.80;8.07;;;-1.10;99.90;;;;;;4859606;29;20049;-83
2022/03/05 02:05:10;;;;;;;15.30;7.05;;;-1.10;99.90;;;;;;4858513;29;20066;-83
2022/03/05 02:07:36;;;;;;;18.80;7.82;;;-1.20;99.90;;;;;;4858334;29;20052;-82
2022/03/05 02:10:04;;;;;;;19.20;7.20;;;-1.20;99.90;;;;;;4842449;29;20041;-82
2022/03/05 02:12:32;;;;;;;17.25;7.38;;;-1.20;99.90;;;;;;4858268;29;20052;-81
2022/03/05 02:15:01;;;;;;;17.70;7.20;;;-1.30;99.90;;;;;;4858063;29;20050;-82
2022/03/05 02:17:28;;;;;;;18.02;7.30;;;-1.30;99.90;;;;;;4857641;29;20053;-82
2022/03/05 02:19:58;;;;;;;19.83;7.28;;;-1.30;99.90;;;;;;4857677;29;20065;-83
2022/03/05 02:22:25;;;;;;;15.60;6.60;;;-1.40;99.90;;;;;;4857637;29;20136;-83
2022/03/05 02:25:03;;;;;;;15.93;7.10;;;-1.40;99.90;;;;;;4872990;29;20102;-81
2022/03/05 02:27:30;;;;;;;16.58;7.60;;;-1.40;99.90;;;;;;4872077;29;20050;-82
2022/03/05 02:29:57;;;;;;;18.05;6.68;;;-1.40;99.90;;;;;;4857071;29;20046;-82
2022/03/05 02:32:23;;;;;;;19.13;7.15;;;-1.40;99.90;;;;;;4857376;29;20109;-81
2022/03/05 02:34:49;;;;;;;16.30;7.85;;;-1.40;99.90;;;;;;4856389;29;20056;-81
2022/03/05 02:37:16;;;;;;;15.85;7.10;;;-1.40;99.90;;;;;;4857560;29;20054;-82
2022/03/05 02:39:44;;;;;;;17.70;8.43;;;-1.50;99.90;;;;;;4856747;29;20042;-81
2022/03/05 02:42:10;;;;;;;16.63;7.15;;;-1.50;99.90;;;;;;4858114;29;20098;-82
2022/03/05 02:44:36;;;;;;;17.08;7.57;;;-1.50;99.90;;;;;;4856462;29;20074;-83
2022/03/05 02:47:02;;;;;;;18.27;7.20;;;-1.50;99.90;;;;;;4842331;29;20057;-82
2022/03/05 02:49:27;;;;;;;14.13;6.80;;;-1.50;99.90;;;;;;4856052;29;20045;-84
2022/03/05 02:51:53;;;;;;;16.90;6.93;;;-1.50;99.90;;;;;;4855271;29;20045;-82
2022/03/05 02:54:19;;;;;;;16.50;5.75;;;-1.50;99.90;;;;;;4854731;29;20041;-81
2022/03/05 02:56:44;;;;;;;15.38;6.43;;;-1.50;99.90;;;;;;4838972;29;20464;-83
2022/03/05 02:59:10;;;;;;;15.60;6.47;;;-1.50;99.90;;;;;;4870347;29;20041;-82
2022/03/05 03:01:35;;;;;;;16.08;7.20;;;-1.60;99.90;;;;;;4854347;29;20735;-81
2022/03/05 03:04:02;;;;;;;13.43;6.32;;;-1.60;99.90;;;;;;4855472;29;20129;-81
2022/03/05 03:06:27;;;;;;;17.75;7.93;;;-1.60;99.90;;;;;;4872080;29;20049;-81
2022/03/05 03:08:53;;;;;;;13.57;6.90;;;-1.60;99.90;;;;;;4856071;29;20070;-81
2022/03/05 03:11:18;;;;;;;16.25;5.68;;;-1.60;99.90;;;;;;4855116;29;20041;-83
2022/03/05 03:13:44;;;;;;;15.18;6.30;;;-1.60;99.90;;;;;;4855928;29;20041;-82
2022/03/05 03:16:09;;;;;;;17.00;6.30;;;-1.70;99.90;;;;;;4855775;29;20053;-81
2022/03/05 03:18:35;;;;;;;15.43;7.05;;;-1.70;99.90;;;;;;4830215;29;20042;-79
2022/03/05 03:21:01;;;;;;;13.27;6.05;;;-1.70;99.90;;;;;;4828385;29;20057;-79
2022/03/05 03:23:26;;;;;;;16.45;6.28;;;-1.70;99.90;;;;;;4843523;29;20124;-79
2022/03/05 03:25:52;;;;;;;13.82;6.53;;;-1.80;99.90;;;;;;4828612;29;20041;-81
2022/03/05 03:28:17;;;;;;;17.65;7.45;;;-1.70;99.90;;;;;;4859468;29;20056;-82
2022/03/05 03:30:43;;;;;;;16.95;6.18;;;-1.80;99.90;;;;;;4858781;29;20046;-81
2022/03/05 03:33:09;;;;;;;17.50;7.68;;;-1.80;99.90;;;;;;4858116;29;20110;-82
2022/03/05 03:35:34;;;;;;;14.80;6.63;;;-1.90;99.90;;;;;;4859522;29;20064;-82
2022/03/05 03:38:00;;;;;;;18.13;7.07;;;-1.80;99.90;;;;;;4858422;29;20569;-81
2022/03/05 03:40:26;;;;;;;15.50;6.05;;;-1.80;99.90;;;;;;4859406;29;20105;-81
2022/03/05 03:42:52;;;;;;;16.13;6.43;;;-1.80;99.90;;;;;;4858672;29;20049;-81
2022/03/05 03:45:18;;;;;;;19.83;6.38;;;-1.90;99.90;;;;;;4843285;29;20041;-81
2022/03/05 03:47:47;;;;;;;13.60;6.57;;;-1.90;99.90;;;;;;4857501;29;20049;-82
2022/03/05 03:50:14;;;;;;;17.45;7.32;;;-1.90;99.90;;;;;;4856165;29;20046;-82
2022/03/05 03:52:40;;;;;;;16.65;6.47;;;-1.90;99.90;;;;;;4856697;29;20045;-82
2022/03/05 03:55:08;;;;;;;14.13;6.07;;;-1.90;99.90;;;;;;4856596;29;20041;-81
2022/03/05 03:57:34;;;;;;;9.30;4.90;;;-1.90;99.90;;;;;;4840450;29;20053;-82
2022/03/05 04:00:00;;;;;;;17.60;6.93;;;-1.90;99.90;;;;;;4856630;29;20109;-83
2022/03/05 04:02:25;;;;;;;13.43;5.85;;;-1.90;99.90;;;;;;4855151;29;20129;-81
2022/03/05 04:04:51;;;;;;;14.18;7.25;;;-2.00;99.90;;;;;;4855518;29;20462;-81
2022/03/05 04:10:04;;;;;;;14.82;7.05;;;-2.00;99.90;;;;;;4854504;29;20076;-81
2022/03/05 04:12:29;;;;;;;17.80;7.20;;;-2.00;99.90;;;;;;4854677;29;20095;-81
2022/03/05 04:14:55;;;;;;;13.90;5.70;;;-2.00;99.90;;;;;;4854640;29;20045;-81
2022/03/05 04:17:22;;;;;;;18.20;7.40;;;-1.90;99.90;;;;;;4855800;29;20049;-81
2022/03/05 04:19:48;;;;;;;12.55;5.50;;;-1.90;99.90;;;;;;4855837;29;20099;-81
2022/03/05 04:22:13;;;;;;;18.45;6.25;;;-1.90;99.90;;;;;;4855151;29;20120;-82
2022/03/05 04:24:39;;;;;;;13.95;6.57;;;-1.80;99.90;;;;;;4850028;29;20049;-79
2022/03/05 04:27:05;;;;;;;19.50;7.28;;;-1.80;99.90;;;;;;4849981;29;20056;-79
2022/03/05 04:29:31;;;;;;;15.35;6.50;;;-1.90;99.90;;;;;;4848265;29;20501;-79
2022/03/05 04:31:56;;;;;;;16.40;5.95;;;-1.90;99.90;;;;;;4834013;29;20458;-79
2022/03/05 04:34:22;;;;;;;20.65;6.30;;;-1.90;99.90;;;;;;4849312;29;20061;-79
2022/03/05 04:36:47;;;;;;;14.07;5.95;;;-1.90;99.90;;;;;;4849031;29;20112;-80
2022/03/05 04:39:13;;;;;;;18.50;6.28;;;-1.90;99.90;;;;;;4848539;29;20045;-80
2022/03/05 04:41:39;;;;;;;17.25;6.28;;;-2.00;99.90;;;;;;4852234;29;20061;-79
2022/03/05 04:44:05;;;;;;;14.98;6.53;;;-1.90;99.90;;;;;;4855391;29;20731;-80
2022/03/05 04:46:31;;;;;;;18.88;6.88;;;-1.90;99.90;;;;;;4854983;29;20525;-80
2022/03/05 04:48:56;;;;;;;16.58;6.63;;;-1.90;99.90;;;;;;4851770;29;20061;-79
2022/03/05 04:51:22;;;;;;;16.42;6.40;;;-2.00;99.90;;;;;;4850561;29;20037;-79
2022/03/05 04:53:47;;;;;;;19.13;7.00;;;-1.90;99.90;;;;;;4852272;29;20042;-80
2022/03/05 04:56:13;;;;;;;19.17;6.65;;;-2.00;99.90;;;;;;4858609;29;20045;-80
2022/03/05 04:58:39;;;;;;;15.90;6.80;;;-2.00;99.90;;;;;;4842242;29;20041;-79
2022/03/05 05:01:05;;;;;;;18.73;6.25;;;-2.00;99.90;;;;;;4864114;29;20049;-81
2022/03/05 05:03:31;;;;;;;17.73;6.95;;;-1.90;99.90;;;;;;4863294;29;20041;-81
2022/03/05 05:05:56;;;;;;;15.55;6.45;;;-1.90;99.90;;;;;;4855060;29;20413;-81
2022/03/05 05:08:22;;;;;;;17.65;7.38;;;-2.00;99.90;;;;;;4851257;29;20081;-79
2022/03/05 05:10:47;;;;;;;16.83;6.20;;;-2.00;99.90;;;;;;4848688;29;20042;-80
2022/03/05 05:13:13;;;;;;;21.05;6.97;;;-2.00;99.90;;;;;;4847738;29;20100;-79
2022/03/05 05:15:39;;;;;;;18.50;6.78;;;-2.10;99.90;;;;;;4833436;29;20049;-79
2022/03/05 05:18:04;;;;;;;21.05;7.13;;;-2.00;99.90;;;;;;4847579;29;20045;-79
2022/03/05 05:20:30;;;;;;;17.15;6.32;;;-2.10;99.90;;;;;;4847410;29;20509;-79
2022/03/05 05:22:56;;;;;;;19.77;6.65;;;-2.10;99.90;;;;;;4846122;29;20046;-79
2022/03/05 05:25:22;;;;;;;15.00;6.40;;;-2.10;99.90;;;;;;4846283;29;20048;-79
2022/03/05 05:27:47;;;;;;;19.42;7.38;;;-2.10;99.90;;;;;;4846697;29;20493;-79
2022/03/05 05:30:13;;;;;;;20.67;7.47;;;-2.10;99.90;;;;;;4847318;29;20049;-80
2022/03/05 05:32:39;;;;;;;20.02;6.38;;;-2.10;99.90;;;;;;4846288;29;20049;-80
2022/03/05 05:35:05;;;;;;;16.92;7.57;;;-2.00;99.90;;;;;;4846337;29;20041;-79
2022/03/05 05:37:31;;;;;;;18.10;6.90;;;-2.00;99.90;;;;;;4847067;29;20054;-80
2022/03/05 05:39:57;;;;;;;17.17;6.05;;;-2.00;99.90;;;;;;4847492;29;20060;-79
2022/03/05 05:42:23;;;;;;;17.98;6.65;;;-2.00;99.90;;;;;;4847022;29;20056;-80
2022/03/05 05:44:48;;;;;;;18.80;6.63;;;-2.00;99.90;;;;;;4847729;29;20041;-80
2022/03/05 05:47:14;;;;;;;18.67;6.55;;;-2.00;99.90;;;;;;4847463;29;20705;-79
2022/03/05 05:49:39;;;;;;;18.30;6.75;;;-2.00;99.90;;;;;;4831955;29;20070;-80
2022/03/05 05:52:05;;;;;;;16.67;6.85;;;-2.10;99.90;;;;;;4843471;29;20102;-79
2022/03/05 05:54:31;;;;;;;17.30;6.38;;;-2.10;99.90;;;;;;4842714;29;20046;-80
2022/03/05 05:56:57;;;;;;;16.17;6.00;;;-2.10;99.90;;;;;;4844477;29;20049;-79
2022/03/05 05:59:22;;;;;;;16.17;6.85;;;-2.10;99.90;;;;;;4844817;29;20045;-79
2022/03/05 06:01:48;;;;;;;15.68;6.10;;;-2.10;99.90;;;;;;4844499;29;20068;-79
2022/03/05 06:04:28;;;;;;;14.35;6.65;;;-2.10;99.90;;;;;;4865884;24;20054;-79
2022/03/05 06:08:04;;;;;;;;;;;;;;;;;;;;;
2022/03/05 06:10:35;;;;;;;19.00;6.70;;;-2.10;99.90;;;;;;4844840;29;20049;-79
2022/03/05 06:13:03;;;;;;;17.50;7.13;;;-2.00;99.90;;;;;;4844638;29;20053;-79
2022/03/05 06:15:38;;;;;;;17.38;6.82;;;-2.10;99.90;;;;;;4830836;29;20113;-79
2022/03/05 06:18:09;;;;;;;19.80;7.50;;;-2.10;99.90;;;;;;4844310;29;20084;-79
2022/03/05 06:20:46;;;;;;;15.85;6.15;;;-2.10;99.90;;;;;;4844923;29;20382;-79
2022/03/05 06:23:15;;;;;;;18.48;6.53;;;-2.00;99.90;;;;;;4830162;29;20088;-79
2022/03/05 06:25:46;;;;;;;21.60;7.43;;;-2.10;99.90;;;;;;4844652;29;20076;-79
2022/03/05 06:28:12;;;;;;;18.70;6.90;;;-2.10;99.90;;;;;;4844429;29;20052;-79
2022/03/05 06:30:38;;;;;;;20.30;6.93;;;-2.10;99.90;;;;;;4843620;29;20136;-79
2022/03/05 06:33:04;;;;;;;19.02;7.15;;;-2.10;99.90;;;;;;4844037;29;20081;-79
2022/03/05 06:35:29;;;;;;;17.52;7.13;;;-2.10;99.90;;;;;;4844573;29;20571;-79
2022/03/05 06:37:55;;;;;;;14.60;6.90;;;-2.20;99.90;;;;;;4844432;29;20049;-79
2022/03/05 06:40:21;;;;;;;11.90;5.75;;;-2.10;99.90;;;;;;4844810;29;20113;-79
2022/03/05 06:42:47;;;;;;;19.52;7.13;;;-2.10;99.90;;;;;;4831676;29;20491;-79
2022/03/05 06:45:13;;;;;;;16.63;5.57;;;-2.00;99.90;;;;;;4846495;29;20041;-79
2022/03/05 06:47:39;;;;;;;20.15;7.03;;;-2.00;99.90;;;;;;4831741;29;20057;-80
2022/03/05 06:50:07;;;;;;;19.50;7.13;;;-1.90;99.90;;;;;;4845876;29;20042;-79
2022/03/05 06:52:32;;;;;;;15.63;6.55;;;-1.70;99.90;;;;;;4847042;29;20041;-79
2022/03/05 06:54:59;;;;;;;17.77;5.88;;;-1.70;99.90;;;;;;4847447;29;20065;-79
2022/03/05 06:57:25;;;;;;;15.35;6.80;;;-1.60;99.90;;;;;;4847113;29;20045;-79
2022/03/05 06:59:51;;;;;;;19.58;7.63;;;-1.60;99.90;;;;;;4843765;29;20053;-79
2022/03/05 07:02:17;;;;;;;17.25;7.00;;;-1.60;99.90;;;;;;4845852;29;20056;-79
2022/03/05 07:04:43;;;;;;;16.90;6.75;;;-1.60;99.90;;;;;;4847105;29;20046;-79
2022/03/05 07:07:09;;;;;;;16.73;7.55;;;-1.50;99.90;;;;;;4847718;29;20053;-79
2022/03/05 07:09:34;;;;;;;15.85;6.15;;;-1.50;99.90;;;;;;4847071;29;20478;-79
2022/03/05 07:12:00;;;;;;;14.25;6.05;;;-1.30;99.90;;;;;;4847482;29;20052;-79
2022/03/05 07:14:26;;;;;;;13.48;5.95;;;-1.20;99.90;;;;;;4847231;29;20416;-79
2022/03/05 07:16:52;;;;;;;14.52;5.30;;;-1.10;99.90;;;;;;4847396;29;20053;-79
2022/03/05 07:19:18;;;;;;;14.93;6.05;;;-1.00;99.90;;;;;;4847234;29;20053;-79
2022/03/05 07:21:44;;;;;;;20.42;7.10;;;-0.80;99.90;;;;;;4831453;29;20049;-79
2022/03/05 07:24:14;;;;;;;18.95;6.20;;;-0.70;99.90;;;;;;4846732;29;20049;-79
2022/03/05 07:47:06;;;;;;;15.40;6.63;;;1.70;99.90;;;;;;1253349;27;20054;-84
2022/03/05 07:49:32;;;;;;;13.30;5.95;;;2.20;99.90;;;;;;4808641;29;20038;-85
2022/03/05 07:51:57;;;;;;;13.57;6.30;;;2.50;99.90;;;;;;4808817;29;20069;-85
2022/03/05 07:54:24;;;;;;;12.88;6.43;;;2.60;99.90;;;;;;4808982;29;20407;-84
2022/03/05 07:56:50;;;;;;;16.10;6.28;;;2.50;99.90;;;;;;4824013;29;20042;-85
2022/03/05 07:59:15;;;;;;;14.00;6.28;;;2.40;99.90;;;;;;4823776;29;20042;-84
2022/03/05 08:01:41;;;;;;;16.52;7.30;;;2.30;99.90;;;;;;4808725;29;20076;-85
2022/03/05 08:26:24;;;;;;;17.77;6.60;;;2.60;99.90;;;;;;4647236;30;20467;-84
2022/03/05 08:29:57;;;;;;;13.80;6.82;;;2.50;99.90;;;;;;4679316;30;20075;-82
2022/03/05 08:32:52;;;;;;;16.00;6.95;;;2.30;99.90;;;;;;4753904;30;20062;-81
2022/03/05 08:35:28;;;;;;;18.67;8.02;;;2.10;99.90;;;;;;4785820;29;20058;-82
2022/03/05 08:37:59;;;;;;;16.67;6.82;;;2.20;99.90;;;;;;4817704;29;20053;-84
2022/03/05 08:40:33;;;;;;;16.40;7.30;;;2.10;99.90;;;;;;4822946;29;20062;-85
2022/03/05 08:43:04;;;;;;;14.40;6.78;;;2.50;99.90;;;;;;4822762;29;20054;-84
2022/03/05 08:45:29;;;;;;;19.77;8.60;;;2.80;99.90;;;;;;4822916;29;20039;-85
2022/03/05 08:47:55;;;;;;;15.07;7.32;;;3.10;99.90;;;;;;4823019;29;20034;-85
2022/03/05 08:50:20;;;;;;;19.00;7.03;;;3.20;99.90;;;;;;4807555;29;20038;-85
2022/03/05 08:52:46;;;;;;;14.90;6.40;;;3.40;99.90;;;;;;4822400;29;20094;-84
2022/03/05 08:55:13;;;;;;;19.23;7.60;;;3.50;99.90;;;;;;4822751;29;20074;-85
2022/03/05 08:57:40;;;;;;;18.98;7.72;;;3.60;99.90;;;;;;4822763;29;20049;-85
2022/03/05 09:00:08;;;;;;;24.60;9.05;;;3.50;99.90;;;;;;4822738;29;20466;-85
2022/03/05 09:02:35;;;;;;;17.95;8.55;;;3.60;99.90;;;;;;4822352;29;20050;-85
2022/03/05 09:05:00;;;;;;;19.63;8.05;;;3.60;99.90;;;;;;4807662;29;20491;-85
2022/03/05 09:07:27;;;;;;;18.92;8.90;;;3.70;99.90;;;;;;4823023;29;20053;-85
2022/03/05 09:09:53;;;;;;;19.50;8.68;;;3.70;99.90;;;;;;4806968;29;20051;-85
2022/03/05 09:12:18;;;;;;;21.70;8.00;;;3.70;99.90;;;;;;4822144;29;20042;-85
2022/03/05 09:14:48;;;;;;;19.42;8.73;;;3.70;99.90;;;;;;4822162;29;20517;-86
2022/03/05 09:17:15;;;;;;;22.27;9.38;;;3.80;99.90;;;;;;4822406;29;20179;-85
2022/03/05 09:19:41;;;;;;;22.27;9.07;;;3.80;99.90;;;;;;4822380;29;20398;-86
2022/03/05 09:22:09;;;;;;;22.65;9.90;;;3.70;99.90;;;;;;4822221;29;20133;-85
2022/03/05 09:24:55;;;;;;;21.95;8.52;;;3.90;99.90;;;;;;4821987;29;20137;-84
2022/03/05 09:27:21;;;;;;;21.30;9.20;;;4.00;99.90;;;;;;4822386;29;20119;-84
2022/03/05 09:29:52;;;;;;;23.40;8.45;;;4.20;99.90;;;;;;4822778;29;20049;-85
2022/03/05 09:32:23;;;;;;;24.27;9.88;;;4.10;99.90;;;;;;4821702;29;20057;-85
2022/03/05 09:35:01;;;;;;;21.50;8.68;;;4.20;99.90;;;;;;4822396;29;20102;-86
2022/03/05 09:37:41;;;;;;;22.00;9.80;;;4.40;99.90;;;;;;4822320;29;20046;-85
2022/03/05 09:40:17;;;;;;;25.55;8.80;;;4.70;99.90;;;;;;4806813;29;20064;-86
2022/03/05 09:42:44;;;;;;;26.05;10.15;;;4.80;99.90;;;;;;4822381;29;20526;-86
2022/03/05 09:45:12;;;;;;;24.65;9.57;;;4.90;99.90;;;;;;4822493;29;20075;-85
2022/03/05 09:47:39;;;;;;;20.83;8.90;;;5.10;99.90;;;;;;4821881;29;20049;-86
2022/03/05 09:50:09;;;;;;;22.27;9.13;;;5.60;99.90;;;;;;4822201;29;20043;-86
2022/03/05 09:52:35;;;;;;;24.38;9.70;;;6.00;99.90;;;;;;4807002;29;20046;-86
2022/03/05 09:55:01;;;;;;;24.20;9.90;;;6.20;99.90;;;;;;4821727;29;20103;-86
2022/03/05 09:57:27;;;;;;;24.67;9.15;;;6.60;99.90;;;;;;4821834;29;20570;-86
2022/03/05 09:59:55;;;;;;;20.92;9.65;;;7.00;99.90;;;;;;4822629;29;20050;-85
2022/03/05 10:02:21;;;;;;;27.95;11.75;;;7.30;99.90;;;;;;4822370;29;20054;-85
2022/03/05 10:04:46;;;;;;;22.60;9.52;;;7.50;99.90;;;;;;4822353;29;20463;-85
2022/03/05 10:07:18;;;;;;;20.30;10.10;;;7.60;99.90;;;;;;4822558;29;20042;-85
2022/03/05 10:09:48;;;;;;;27.50;9.93;;;7.60;99.90;;;;;;4822662;29;20046;-85
2022/03/05 10:12:33;;;;;;;22.38;10.30;;;7.60;99.90;;;;;;4807098;29;20056;-86
2022/03/05 10:15:13;;;;;;;24.52;11.35;;;7.80;99.90;;;;;;4821809;29;20057;-85
2022/03/05 10:18:06;;;;;;;24.48;9.38;;;8.00;99.90;;;;;;4807263;29;20078;-85
2022/03/05 10:20:34;;;;;;;22.88;9.77;;;8.00;99.90;;;;;;4807139;29;20045;-85
2022/03/05 10:23:10;;;;;;;21.63;8.93;;;7.80;99.90;;;;;;4822026;29;20047;-85
2022/03/05 10:26:09;;;;;;;24.02;9.70;;;7.00;99.90;;;;;;4807436;29;20418;-85
2022/03/05 10:28:37;;;;;;;23.00;10.02;;;6.30;99.90;;;;;;4799608;29;20418;-86
2022/03/05 10:31:12;;;;;;;23.02;9.60;;;5.90;99.90;;;;;;4821678;29;20046;-85
2022/03/05 10:33:43;;;;;;;25.73;10.50;;;5.60;99.90;;;;;;4822063;29;20525;-85
2022/03/05 10:36:25;;;;;;;25.50;10.97;;;5.50;99.90;;;;;;4838981;29;20502;-84
2022/03/05 10:39:03;;;;;;;20.88;8.70;;;5.40;99.90;;;;;;4825747;29;20055;-84
2022/03/05 10:41:35;;;;;;;24.73;8.98;;;5.20;99.90;;;;;;4825294;29;20055;-85
2022/03/05 10:44:05;;;;;;;20.83;9.23;;;5.20;99.90;;;;;;4810342;29;20088;-85
2022/03/05 10:47:09;;;;;;;21.42;9.05;;;5.20;99.90;;;;;;4825210;29;20085;-86
2022/03/05 10:49:50;;;;;;;22.60;10.13;;;5.10;99.90;;;;;;4776114;29;20043;-86
2022/03/05 10:52:15;;;;;;;27.83;9.77;;;5.20;99.90;;;;;;4790798;29;20075;-85
2022/03/05 10:54:51;;;;;;;23.27;9.40;;;5.30;99.90;;;;;;4809300;29;20054;-85
2022/03/05 10:57:22;;;;;;;30.02;10.77;;;5.50;99.90;;;;;;4824848;29;20451;-83
2022/03/05 10:59:48;;;;;;;22.95;9.32;;;5.60;99.90;;;;;;4839665;29;20042;-82
2022/03/05 11:07:18;;;;;;;26.02;10.60;;;5.80;99.90;;;;;;4844266;29;20058;-82
2022/03/05 11:09:54;;;;;;;24.98;10.00;;;5.70;99.90;;;;;;4831912;29;20054;-82
2022/03/05 11:12:21;;;;;;;26.33;10.05;;;5.70;99.90;;;;;;4813219;29;20046;-83
2022/03/05 11:14:51;;;;;;;25.02;9.32;;;5.70;99.90;;;;;;4845796;29;20386;-82
2022/03/05 11:17:19;;;;;;;26.10;9.73;;;5.70;99.90;;;;;;4830796;29;20060;-82
2022/03/05 11:19:52;;;;;;;23.98;11.13;;;5.70;99.90;;;;;;4848525;29;20050;-83
2022/03/05 11:22:49;;;;;;;24.27;10.02;;;5.70;99.90;;;;;;4848879;29;20068;-82
2022/03/05 11:25:20;;;;;;;21.23;9.88;;;5.80;99.90;;;;;;4847957;29;20046;-83
2022/03/05 11:27:58;;;;;;;25.88;10.07;;;5.90;99.90;;;;;;4831280;29;20045;-82
2022/03/05 11:30:26;;;;;;;22.98;9.88;;;5.80;99.90;;;;;;4845370;29;20041;-82
2022/03/05 11:32:51;;;;;;;24.63;9.80;;;5.80;99.90;;;;;;4845368;29;20096;-83
2022/03/05 11:35:18;;;;;;;26.67;9.93;;;5.90;99.90;;;;;;4845307;29;20076;-83
2022/03/05 11:37:44;;;;;;;23.70;10.48;;;5.80;99.90;;;;;;4845751;29;20046;-83
2022/03/05 11:40:39;;;;;;;26.98;11.05;;;5.80;99.90;;;;;;4860423;29;20041;-83
2022/03/05 11:43:19;;;;;;;27.70;10.38;;;5.90;99.90;;;;;;4860382;29;20053;-82
2022/03/05 11:45:50;;;;;;;30.75;10.95;;;6.00;99.90;;;;;;4845150;29;20466;-82
2022/03/05 11:48:24;;;;;;;26.27;9.73;;;6.10;99.90;;;;;;4844540;29;20084;-83
2022/03/05 11:50:52;;;;;;;27.67;12.00;;;6.20;99.90;;;;;;4844941;29;20290;-87
2022/03/05 11:53:17;;;;;;;23.92;9.77;;;6.30;99.90;;;;;;4845384;29;20048;-86
2022/03/05 11:55:45;;;;;;;26.10;9.55;;;6.30;99.90;;;;;;4845376;29;20565;-86
2022/03/05 11:58:13;;;;;;;24.27;10.40;;;6.40;99.90;;;;;;4830078;29;20494;-86
2022/03/05 12:00:41;;;;;;;20.05;9.00;;;6.30;99.90;;;;;;4860321;29;20046;-75
2022/03/05 12:03:07;;;;;;;26.98;12.25;;;6.20;99.90;;;;;;4844704;29;20057;-75
2022/03/05 12:05:40;;;;;;;30.65;12.00;;;6.20;99.90;;;;;;4844166;29;20045;-74
2022/03/05 12:08:08;;;;;;;24.40;11.25;;;6.20;99.90;;;;;;4844580;29;20501;-76
2022/03/05 12:10:35;;;;;;;28.25;10.32;;;6.30;99.90;;;;;;4844312;29;20049;-86
2022/03/05 12:13:09;;;;;;;22.73;10.60;;;6.30;99.90;;;;;;4845362;29;20425;-86
2022/03/05 12:15:38;;;;;;;26.17;11.15;;;6.40;99.90;;;;;;4845024;29;20049;-86
2022/03/05 12:18:05;;;;;;;27.60;11.40;;;6.50;99.90;;;;;;4860427;29;20133;-86
2022/03/05 12:20:34;;;;;;;27.63;10.95;;;6.50;99.90;;;;;;4845769;29;20049;-86
2022/03/05 12:23:09;;;;;;;28.52;10.07;;;6.50;99.90;;;;;;4845103;29;20048;-86
2022/03/05 12:25:40;;;;;;;26.77;10.07;;;6.50;99.90;;;;;;4844476;29;20413;-85
2022/03/05 12:28:13;;;;;;;32.67;11.63;;;6.50;99.90;;;;;;4844481;29;20041;-86
2022/03/05 12:30:39;;;;;;;25.52;10.00;;;6.50;99.90;;;;;;4844520;29;20427;-86
2022/03/05 12:33:13;;;;;;;27.10;11.57;;;6.50;99.90;;;;;;4844225;29;20045;-86
2022/03/05 12:35:40;;;;;;;24.48;10.05;;;6.70;99.90;;;;;;4844684;29;20390;-86
2022/03/05 12:38:07;;;;;;;29.98;11.40;;;6.60;99.90;;;;;;4844440;29;20507;-86
2022/03/05 12:40:33;;;;;;;32.35;11.57;;;6.60;99.90;;;;;;4844526;29;20057;-85
2022/03/05 12:43:00;;;;;;;27.90;11.85;;;6.60;99.90;;;;;;4844210;29;20627;-84
2022/03/05 12:45:29;;;;;;;28.45;11.02;;;6.60;99.90;;;;;;4844017;29;20124;-85
2022/03/05 12:48:00;;;;;;;31.98;11.20;;;6.60;99.90;;;;;;4844040;29;20077;-84
2022/03/05 12:50:31;;;;;;;29.40;11.10;;;6.70;99.90;;;;;;4844015;29;20046;-85
2022/03/05 12:53:00;;;;;;;31.05;11.30;;;6.70;99.90;;;;;;4843880;29;20033;-85
2022/03/05 12:55:34;;;;;;;25.88;11.45;;;6.70;99.90;;;;;;4844084;29;20120;-85
2022/03/05 12:58:09;;;;;;;27.25;12.07;;;6.70;99.90;;;;;;4844219;29;20417;-84
2022/03/05 13:00:35;;;;;;;27.70;10.85;;;6.80;99.90;;;;;;4842641;29;20049;-84
2022/03/05 13:03:01;;;;;;;31.02;10.57;;;6.80;99.90;;;;;;4843465;29;20527;-84
2022/03/05 13:05:27;;;;;;;28.67;10.85;;;6.90;99.90;;;;;;4843826;29;20046;-84
2022/03/05 13:07:52;;;;;;;28.08;11.90;;;7.00;99.90;;;;;;4844157;29;20073;-86
2022/03/05 13:10:18;;;;;;;25.90;11.32;;;7.00;99.90;;;;;;4843549;29;20637;-86
2022/03/05 13:12:44;;;;;;;30.17;11.30;;;7.10;99.90;;;;;;4829285;29;20038;-85
2022/03/05 13:15:24;;;;;;;26.33;10.77;;;7.10;99.90;;;;;;4844113;29;20037;-85
2022/03/05 13:17:50;;;;;;;29.90;11.95;;;7.10;99.90;;;;;;4844049;29;20051;-85
2022/03/05 13:20:22;;;;;;;25.65;11.60;;;7.10;99.90;;;;;;5130054;27;20394;-84
2022/03/05 13:22:49;;;;;;;28.40;10.65;;;7.20;99.90;;;;;;5111936;28;20456;-84
2022/03/05 13:25:15;;;;;;;26.92;11.48;;;7.20;99.90;;;;;;5112025;28;20039;-84
2022/03/05 13:27:42;;;;;;;28.00;12.00;;;7.20;99.90;;;;;;5129067;28;20039;-84
2022/03/05 13:30:21;;;;;;;27.33;11.43;;;7.20;99.90;;;;;;5111871;28;20027;-85
2022/03/05 13:32:49;;;;;;;30.50;12.57;;;7.20;99.90;;;;;;5128539;28;20183;-84
2022/03/05 13:35:16;;;;;;;33.05;12.48;;;7.30;99.90;;;;;;5134350;28;20043;-82
2022/03/05 13:37:45;;;;;;;23.98;9.95;;;7.30;99.90;;;;;;5134908;28;20036;-83